sensor_id;sensor_type;location;lat;lon;timestamp;P1;durP1;ratioP1;P2;durP2;ratioP2
21843;SDS011;11084;52.482;9.108;2022-07-23T00:00:03;5.03;;;3.20;;
21843;SDS011;11084;52.482;9.108;2022-07-23T00:02:31;2.83;;;2.60;;
21843;SDS011;11084;52.482;9.108;2022-07-23T00:04:57;3.77;;;2.93;;
21843;SDS011;11084;52.482;9.108;2022-07-23T00:07:23;4.13;;;2.90;;
21843;SDS011;11084;52.482;9.108;2022-07-23T00:09:49;4.73;;;2.77;;
21843;SDS011;11084;52.482;9.108;2022-07-23T00:12:15;3.40;;;1.50;;
21843;SDS011;11084;52.482;9.108;2022-07-23T00:14:42;17.37;;;1.80;;
21843;SDS011;11084;52.482;9.108;2022-07-23T00:17:08;3.47;;;1.80;;
21843;SDS011;11084;52.482;9.108;2022-07-23T00:19:35;2.13;;;1.60;;
21843;SDS011;11084;52.482;9.108;2022-07-23T00:22:01;2.80;;;2.00;;
21843;SDS011;11084;52.482;9.108;2022-07-23T00:24:27;4.83;;;2.40;;
21843;SDS011;11084;52.482;9.108;2022-07-23T00:26:53;3.73;;;2.63;;
21843;SDS011;11084;52.482;9.108;2022-07-23T00:29:20;3.40;;;2.80;;
21843;SDS011;11084;52.482;9.108;2022-07-23T00:31:45;8.43;;;3.63;;
21843;SDS011;11084;52.482;9.108;2022-07-23T00:34:12;6.90;;;3.37;;
21843;SDS011;11084;52.482;9.108;2022-07-23T00:36:38;7.27;;;3.80;;
21843;SDS011;11084;52.482;9.108;2022-07-23T00:39:04;7.27;;;3.17;;
21843;SDS011;11084;52.482;9.108;2022-07-23T00:41:30;7.80;;;3.63;;
21843;SDS011;11084;52.482;9.108;2022-07-23T00:44:13;7.40;;;3.60;;
21843;SDS011;11084;52.482;9.108;2022-07-23T00:46:46;4.87;;;3.20;;
21843;SDS011;11084;52.482;9.108;2022-07-23T00:49:15;3.90;;;3.13;;
21843;SDS011;11084;52.482;9.108;2022-07-23T00:51:41;5.37;;;3.97;;
21843;SDS011;11084;52.482;9.108;2022-07-23T00:54:08;3.70;;;2.87;;
21843;SDS011;11084;52.482;9.108;2022-07-23T00:56:34;3.40;;;2.77;;
21843;SDS011;11084;52.482;9.108;2022-07-23T00:59:01;9.53;;;3.17;;
21843;SDS011;11084;52.482;9.108;2022-07-23T01:01:28;7.67;;;3.77;;
21843;SDS011;11084;52.482;9.108;2022-07-23T01:03:54;6.87;;;4.30;;
21843;SDS011;11084;52.482;9.108;2022-07-23T01:06:20;5.40;;;3.60;;
21843;SDS011;11084;52.482;9.108;2022-07-23T01:08:46;3.77;;;2.60;;
21843;SDS011;11084;52.482;9.108;2022-07-23T01:11:13;3.93;;;3.30;;
21843;SDS011;11084;52.482;9.108;2022-07-23T01:13:41;5.07;;;3.00;;
21843;SDS011;11084;52.482;9.108;2022-07-23T01:16:10;6.10;;;3.37;;
21843;SDS011;11084;52.482;9.108;2022-07-23T01:18:36;6.13;;;3.80;;
21843;SDS011;11084;52.482;9.108;2022-07-23T01:21:02;7.63;;;4.13;;
21843;SDS011;11084;52.482;9.108;2022-07-23T01:23:28;10.03;;;4.80;;
21843;SDS011;11084;52.482;9.108;2022-07-23T01:25:57;6.07;;;4.30;;
21843;SDS011;11084;52.482;9.108;2022-07-23T01:28:25;9.13;;;3.93;;
21843;SDS011;11084;52.482;9.108;2022-07-23T01:30:52;7.27;;;4.10;;
21843;SDS011;11084;52.482;9.108;2022-07-23T01:33:19;7.43;;;4.37;;
21843;SDS011;11084;52.482;9.108;2022-07-23T01:35:45;6.10;;;4.10;;
21843;SDS011;11084;52.482;9.108;2022-07-23T01:38:17;7.80;;;4.50;;
21843;SDS011;11084;52.482;9.108;2022-07-23T01:40:44;10.43;;;4.37;;
21843;SDS011;11084;52.482;9.108;2022-07-23T01:43:10;6.37;;;4.03;;
21843;SDS011;11084;52.482;9.108;2022-07-23T01:45:37;7.03;;;4.47;;
21843;SDS011;11084;52.482;9.108;2022-07-23T01:48:03;9.03;;;4.27;;
21843;SDS011;11084;52.482;9.108;2022-07-23T01:50:30;8.97;;;4.17;;
21843;SDS011;11084;52.482;9.108;2022-07-23T01:52:59;7.70;;;4.50;;
21843;SDS011;11084;52.482;9.108;2022-07-23T01:57:56;7.47;;;4.73;;
21843;SDS011;11084;52.482;9.108;2022-07-23T02:00:27;8.13;;;5.20;;
21843;SDS011;11084;52.482;9.108;2022-07-23T02:02:53;7.50;;;4.70;;
21843;SDS011;11084;52.482;9.108;2022-07-23T02:05:19;14.33;;;5.63;;
21843;SDS011;11084;52.482;9.108;2022-07-23T02:07:46;7.67;;;4.53;;
21843;SDS011;11084;52.482;9.108;2022-07-23T02:10:12;6.80;;;4.77;;
21843;SDS011;11084;52.482;9.108;2022-07-23T02:12:38;9.90;;;5.70;;
21843;SDS011;11084;52.482;9.108;2022-07-23T02:15:04;6.93;;;4.80;;
21843;SDS011;11084;52.482;9.108;2022-07-23T02:17:31;5.87;;;4.30;;
21843;SDS011;11084;52.482;9.108;2022-07-23T02:20:00;9.20;;;4.43;;
21843;SDS011;11084;52.482;9.108;2022-07-23T02:22:27;7.80;;;4.43;;
21843;SDS011;11084;52.482;9.108;2022-07-23T02:24:53;8.47;;;4.50;;
21843;SDS011;11084;52.482;9.108;2022-07-23T02:27:19;8.97;;;4.47;;
21843;SDS011;11084;52.482;9.108;2022-07-23T02:29:46;7.63;;;4.70;;
21843;SDS011;11084;52.482;9.108;2022-07-23T02:32:13;8.83;;;4.10;;
21843;SDS011;11084;52.482;9.108;2022-07-23T02:34:39;15.17;;;4.73;;
21843;SDS011;11084;52.482;9.108;2022-07-23T02:37:06;9.00;;;5.17;;
21843;SDS011;11084;52.482;9.108;2022-07-23T02:39:37;11.60;;;4.83;;
21843;SDS011;11084;52.482;9.108;2022-07-23T02:42:03;9.03;;;4.33;;
21843;SDS011;11084;52.482;9.108;2022-07-23T02:44:31;7.57;;;4.73;;
21843;SDS011;11084;52.482;9.108;2022-07-23T02:46:58;11.57;;;4.97;;
21843;SDS011;11084;52.482;9.108;2022-07-23T02:49:24;6.27;;;4.37;;
21843;SDS011;11084;52.482;9.108;2022-07-23T02:51:51;8.03;;;4.53;;
21843;SDS011;11084;52.482;9.108;2022-07-23T02:54:17;11.43;;;4.63;;
21843;SDS011;11084;52.482;9.108;2022-07-23T02:56:43;9.20;;;4.50;;
21843;SDS011;11084;52.482;9.108;2022-07-23T02:59:11;11.27;;;4.60;;
21843;SDS011;11084;52.482;9.108;2022-07-23T03:01:37;14.63;;;5.00;;
21843;SDS011;11084;52.482;9.108;2022-07-23T03:04:04;11.20;;;4.30;;
21843;SDS011;11084;52.482;9.108;2022-07-23T03:06:31;6.83;;;4.17;;
21843;SDS011;11084;52.482;9.108;2022-07-23T03:08:57;6.73;;;4.57;;
21843;SDS011;11084;52.482;9.108;2022-07-23T03:11:23;8.90;;;4.90;;
21843;SDS011;11084;52.482;9.108;2022-07-23T03:13:50;6.40;;;4.47;;
21843;SDS011;11084;52.482;9.108;2022-07-23T03:16:16;10.93;;;4.57;;
21843;SDS011;11084;52.482;9.108;2022-07-23T03:18:41;6.30;;;4.50;;
21843;SDS011;11084;52.482;9.108;2022-07-23T03:21:08;5.57;;;4.57;;
21843;SDS011;11084;52.482;9.108;2022-07-23T03:23:36;7.70;;;4.70;;
21843;SDS011;11084;52.482;9.108;2022-07-23T03:26:02;9.90;;;4.47;;
21843;SDS011;11084;52.482;9.108;2022-07-23T03:28:28;6.10;;;4.63;;
21843;SDS011;11084;52.482;9.108;2022-07-23T03:30:56;9.33;;;4.60;;
21843;SDS011;11084;52.482;9.108;2022-07-23T03:33:22;11.17;;;4.77;;
21843;SDS011;11084;52.482;9.108;2022-07-23T03:35:48;6.23;;;4.93;;
21843;SDS011;11084;52.482;9.108;2022-07-23T03:38:19;10.03;;;5.03;;
21843;SDS011;11084;52.482;9.108;2022-07-23T03:40:45;8.60;;;5.47;;
21843;SDS011;11084;52.482;9.108;2022-07-23T03:43:12;7.67;;;5.03;;
21843;SDS011;11084;52.482;9.108;2022-07-23T03:45:38;8.87;;;5.03;;
21843;SDS011;11084;52.482;9.108;2022-07-23T03:48:06;6.30;;;4.73;;
21843;SDS011;11084;52.482;9.108;2022-07-23T03:50:32;12.70;;;5.70;;
21843;SDS011;11084;52.482;9.108;2022-07-23T03:52:59;17.30;;;6.20;;
21843;SDS011;11084;52.482;9.108;2022-07-23T03:55:26;7.47;;;5.90;;
21843;SDS011;11084;52.482;9.108;2022-07-23T03:57:52;10.10;;;5.87;;
21843;SDS011;11084;52.482;9.108;2022-07-23T04:00:19;10.97;;;5.77;;
21843;SDS011;11084;52.482;9.108;2022-07-23T04:02:48;7.80;;;5.23;;
21843;SDS011;11084;52.482;9.108;2022-07-23T04:05:16;9.43;;;5.00;;
21843;SDS011;11084;52.482;9.108;2022-07-23T04:07:45;9.30;;;5.47;;
21843;SDS011;11084;52.482;9.108;2022-07-23T04:10:14;7.80;;;5.27;;
21843;SDS011;11084;52.482;9.108;2022-07-23T04:12:41;9.03;;;5.53;;
21843;SDS011;11084;52.482;9.108;2022-07-23T04:15:09;9.07;;;5.63;;
21843;SDS011;11084;52.482;9.108;2022-07-23T04:17:35;8.73;;;5.23;;
21843;SDS011;11084;52.482;9.108;2022-07-23T04:20:02;7.83;;;4.70;;
21843;SDS011;11084;52.482;9.108;2022-07-23T04:22:34;8.97;;;5.13;;
21843;SDS011;11084;52.482;9.108;2022-07-23T04:25:00;10.60;;;5.37;;
21843;SDS011;11084;52.482;9.108;2022-07-23T04:27:26;8.10;;;5.10;;
21843;SDS011;11084;52.482;9.108;2022-07-23T04:29:53;8.50;;;4.90;;
21843;SDS011;11084;52.482;9.108;2022-07-23T04:32:19;9.30;;;4.97;;
21843;SDS011;11084;52.482;9.108;2022-07-23T04:34:45;7.93;;;5.17;;
21843;SDS011;11084;52.482;9.108;2022-07-23T04:37:12;8.47;;;4.77;;
21843;SDS011;11084;52.482;9.108;2022-07-23T04:39:38;8.30;;;4.63;;
21843;SDS011;11084;52.482;9.108;2022-07-23T04:42:04;8.57;;;5.37;;
21843;SDS011;11084;52.482;9.108;2022-07-23T04:44:31;8.83;;;5.37;;
21843;SDS011;11084;52.482;9.108;2022-07-23T04:46:58;12.77;;;4.33;;
21843;SDS011;11084;52.482;9.108;2022-07-23T04:49:24;5.53;;;3.97;;
21843;SDS011;11084;52.482;9.108;2022-07-23T04:51:50;6.73;;;4.40;;
21843;SDS011;11084;52.482;9.108;2022-07-23T04:54:16;10.07;;;3.77;;
21843;SDS011;11084;52.482;9.108;2022-07-23T04:56:43;6.00;;;3.97;;
21843;SDS011;11084;52.482;9.108;2022-07-23T04:59:09;4.37;;;3.50;;
21843;SDS011;11084;52.482;9.108;2022-07-23T05:01:35;7.17;;;4.80;;
21843;SDS011;11084;52.482;9.108;2022-07-23T05:04:02;13.10;;;5.67;;
21843;SDS011;11084;52.482;9.108;2022-07-23T05:06:32;8.13;;;5.53;;
21843;SDS011;11084;52.482;9.108;2022-07-23T05:08:58;15.40;;;6.17;;
21843;SDS011;11084;52.482;9.108;2022-07-23T05:11:26;12.93;;;5.97;;
21843;SDS011;11084;52.482;9.108;2022-07-23T05:13:52;15.40;;;6.00;;
21843;SDS011;11084;52.482;9.108;2022-07-23T05:16:19;13.23;;;6.20;;
21843;SDS011;11084;52.482;9.108;2022-07-23T05:18:46;11.23;;;6.73;;
21843;SDS011;11084;52.482;9.108;2022-07-23T05:21:12;13.27;;;6.50;;
21843;SDS011;11084;52.482;9.108;2022-07-23T05:23:39;17.10;;;6.60;;
21843;SDS011;11084;52.482;9.108;2022-07-23T05:26:06;9.90;;;6.43;;
21843;SDS011;11084;52.482;9.108;2022-07-23T05:28:32;9.30;;;5.97;;
21843;SDS011;11084;52.482;9.108;2022-07-23T05:30:58;8.50;;;6.43;;
21843;SDS011;11084;52.482;9.108;2022-07-23T05:33:24;14.67;;;6.87;;
21843;SDS011;11084;52.482;9.108;2022-07-23T05:35:51;9.50;;;6.00;;
21843;SDS011;11084;52.482;9.108;2022-07-23T05:38:23;21.90;;;6.20;;
21843;SDS011;11084;52.482;9.108;2022-07-23T05:40:50;7.80;;;5.53;;
21843;SDS011;11084;52.482;9.108;2022-07-23T05:43:17;10.20;;;5.70;;
21843;SDS011;11084;52.482;9.108;2022-07-23T05:45:46;10.30;;;5.43;;
21843;SDS011;11084;52.482;9.108;2022-07-23T05:48:13;18.80;;;5.77;;
21843;SDS011;11084;52.482;9.108;2022-07-23T05:50:55;12.40;;;5.33;;
21843;SDS011;11084;52.482;9.108;2022-07-23T05:53:29;8.97;;;5.50;;
21843;SDS011;11084;52.482;9.108;2022-07-23T05:56:19;8.10;;;5.33;;
21843;SDS011;11084;52.482;9.108;2022-07-23T05:58:45;12.20;;;5.43;;
21843;SDS011;11084;52.482;9.108;2022-07-23T06:01:13;12.77;;;4.70;;
21843;SDS011;11084;52.482;9.108;2022-07-23T06:03:47;9.00;;;4.77;;
21843;SDS011;11084;52.482;9.108;2022-07-23T06:06:13;9.67;;;5.37;;
21843;SDS011;11084;52.482;9.108;2022-07-23T06:08:40;10.67;;;4.63;;
21843;SDS011;11084;52.482;9.108;2022-07-23T06:11:08;8.30;;;4.73;;
21843;SDS011;11084;52.482;9.108;2022-07-23T06:13:35;9.60;;;4.60;;
21843;SDS011;11084;52.482;9.108;2022-07-23T06:16:01;8.30;;;4.60;;
21843;SDS011;11084;52.482;9.108;2022-07-23T06:18:29;8.73;;;4.63;;
21843;SDS011;11084;52.482;9.108;2022-07-23T06:20:55;6.60;;;4.03;;
21843;SDS011;11084;52.482;9.108;2022-07-23T06:23:21;8.67;;;4.27;;
21843;SDS011;11084;52.482;9.108;2022-07-23T06:25:47;5.93;;;3.60;;
21843;SDS011;11084;52.482;9.108;2022-07-23T06:28:13;10.93;;;3.93;;
21843;SDS011;11084;52.482;9.108;2022-07-23T06:30:41;8.50;;;4.27;;
21843;SDS011;11084;52.482;9.108;2022-07-23T06:33:07;6.23;;;4.00;;
21843;SDS011;11084;52.482;9.108;2022-07-23T06:35:33;7.47;;;4.30;;
21843;SDS011;11084;52.482;9.108;2022-07-23T06:37:59;8.10;;;3.20;;
21843;SDS011;11084;52.482;9.108;2022-07-23T06:40:26;7.10;;;3.43;;
21843;SDS011;11084;52.482;9.108;2022-07-23T06:42:52;7.73;;;3.50;;
21843;SDS011;11084;52.482;9.108;2022-07-23T06:45:21;6.97;;;3.67;;
21843;SDS011;11084;52.482;9.108;2022-07-23T06:47:48;8.20;;;3.40;;
21843;SDS011;11084;52.482;9.108;2022-07-23T06:50:14;8.57;;;3.20;;
21843;SDS011;11084;52.482;9.108;2022-07-23T06:52:41;4.57;;;2.50;;
21843;SDS011;11084;52.482;9.108;2022-07-23T06:55:09;17.10;;;3.23;;
21843;SDS011;11084;52.482;9.108;2022-07-23T06:57:35;5.70;;;2.33;;
21843;SDS011;11084;52.482;9.108;2022-07-23T07:00:02;6.30;;;2.73;;
21843;SDS011;11084;52.482;9.108;2022-07-23T07:02:29;6.37;;;2.70;;
21843;SDS011;11084;52.482;9.108;2022-07-23T07:04:55;3.73;;;2.23;;
21843;SDS011;11084;52.482;9.108;2022-07-23T07:07:21;3.00;;;1.70;;
21843;SDS011;11084;52.482;9.108;2022-07-23T07:09:47;7.70;;;2.00;;
21843;SDS011;11084;52.482;9.108;2022-07-23T07:12:14;8.00;;;2.13;;
21843;SDS011;11084;52.482;9.108;2022-07-23T07:14:41;6.70;;;2.10;;
21843;SDS011;11084;52.482;9.108;2022-07-23T07:17:07;5.80;;;2.30;;
21843;SDS011;11084;52.482;9.108;2022-07-23T07:19:33;3.97;;;1.90;;
21843;SDS011;11084;52.482;9.108;2022-07-23T07:21:59;2.87;;;1.60;;
21843;SDS011;11084;52.482;9.108;2022-07-23T07:24:25;4.00;;;1.83;;
21843;SDS011;11084;52.482;9.108;2022-07-23T07:26:51;2.70;;;1.50;;
21843;SDS011;11084;52.482;9.108;2022-07-23T07:29:17;3.63;;;1.80;;
21843;SDS011;11084;52.482;9.108;2022-07-23T07:31:43;5.70;;;1.53;;
21843;SDS011;11084;52.482;9.108;2022-07-23T07:34:09;7.90;;;1.80;;
21843;SDS011;11084;52.482;9.108;2022-07-23T07:36:35;5.80;;;1.43;;
21843;SDS011;11084;52.482;9.108;2022-07-23T07:39:03;10.97;;;2.23;;
21843;SDS011;11084;52.482;9.108;2022-07-23T07:41:30;4.03;;;1.80;;
21843;SDS011;11084;52.482;9.108;2022-07-23T07:43:56;7.37;;;1.43;;
21843;SDS011;11084;52.482;9.108;2022-07-23T07:46:24;5.87;;;1.60;;
21843;SDS011;11084;52.482;9.108;2022-07-23T07:48:52;8.03;;;2.00;;
21843;SDS011;11084;52.482;9.108;2022-07-23T07:51:19;9.17;;;1.70;;
21843;SDS011;11084;52.482;9.108;2022-07-23T07:53:46;3.40;;;1.73;;
21843;SDS011;11084;52.482;9.108;2022-07-23T07:56:12;8.03;;;2.20;;
21843;SDS011;11084;52.482;9.108;2022-07-23T07:58:38;4.50;;;1.87;;
21843;SDS011;11084;52.482;9.108;2022-07-23T08:01:04;6.03;;;1.53;;
21843;SDS011;11084;52.482;9.108;2022-07-23T08:03:30;5.17;;;1.70;;
21843;SDS011;11084;52.482;9.108;2022-07-23T08:05:56;2.87;;;1.40;;
21843;SDS011;11084;52.482;9.108;2022-07-23T08:08:22;6.50;;;1.60;;
21843;SDS011;11084;52.482;9.108;2022-07-23T08:10:48;2.17;;;1.30;;
21843;SDS011;11084;52.482;9.108;2022-07-23T08:13:15;2.40;;;1.40;;
21843;SDS011;11084;52.482;9.108;2022-07-23T08:15:41;6.63;;;1.53;;
21843;SDS011;11084;52.482;9.108;2022-07-23T08:18:09;2.10;;;1.40;;
21843;SDS011;11084;52.482;9.108;2022-07-23T08:20:35;4.30;;;1.63;;
21843;SDS011;11084;52.482;9.108;2022-07-23T08:23:06;1.83;;;1.30;;
21843;SDS011;11084;52.482;9.108;2022-07-23T08:25:34;3.70;;;1.30;;
21843;SDS011;11084;52.482;9.108;2022-07-23T08:28:07;4.43;;;1.20;;
21843;SDS011;11084;52.482;9.108;2022-07-23T08:30:37;1.87;;;0.93;;
21843;SDS011;11084;52.482;9.108;2022-07-23T08:33:07;3.80;;;1.10;;
21843;SDS011;11084;52.482;9.108;2022-07-23T08:35:39;2.73;;;1.50;;
21843;SDS011;11084;52.482;9.108;2022-07-23T08:38:12;1.10;;;1.00;;
21843;SDS011;11084;52.482;9.108;2022-07-23T08:40:41;3.83;;;1.17;;
21843;SDS011;11084;52.482;9.108;2022-07-23T08:43:16;4.30;;;1.30;;
21843;SDS011;11084;52.482;9.108;2022-07-23T08:45:49;5.63;;;1.40;;
21843;SDS011;11084;52.482;9.108;2022-07-23T08:48:19;3.47;;;2.23;;
21843;SDS011;11084;52.482;9.108;2022-07-23T08:50:50;6.03;;;1.80;;
21843;SDS011;11084;52.482;9.108;2022-07-23T08:53:22;1.57;;;1.43;;
21843;SDS011;11084;52.482;9.108;2022-07-23T08:55:51;6.00;;;1.47;;
21843;SDS011;11084;52.482;9.108;2022-07-23T08:58:23;5.40;;;1.67;;
21843;SDS011;11084;52.482;9.108;2022-07-23T09:00:51;1.90;;;1.43;;
21843;SDS011;11084;52.482;9.108;2022-07-23T09:05:46;2.73;;;1.40;;
21843;SDS011;11084;52.482;9.108;2022-07-23T09:08:13;2.93;;;1.37;;
21843;SDS011;11084;52.482;9.108;2022-07-23T09:10:49;3.53;;;1.33;;
21843;SDS011;11084;52.482;9.108;2022-07-23T09:15:59;3.97;;;1.67;;
21843;SDS011;11084;52.482;9.108;2022-07-23T09:18:32;2.70;;;1.10;;
21843;SDS011;11084;52.482;9.108;2022-07-23T09:22:06;5.00;;;1.20;;
21843;SDS011;11084;52.482;9.108;2022-07-23T09:36:54;0.80;;;0.77;;
21843;SDS011;11084;52.482;9.108;2022-07-23T09:39:34;9.53;;;0.80;;
21843;SDS011;11084;52.482;9.108;2022-07-23T09:42:17;3.43;;;1.00;;
21843;SDS011;11084;52.482;9.108;2022-07-23T09:44:48;1.70;;;0.80;;
21843;SDS011;11084;52.482;9.108;2022-07-23T09:47:17;2.63;;;1.13;;
21843;SDS011;11084;52.482;9.108;2022-07-23T09:52:48;5.97;;;0.80;;
21843;SDS011;11084;52.482;9.108;2022-07-23T09:55:16;10.97;;;1.30;;
21843;SDS011;11084;52.482;9.108;2022-07-23T09:57:43;2.43;;;0.80;;
21843;SDS011;11084;52.482;9.108;2022-07-23T10:00:15;1.70;;;0.80;;
21843;SDS011;11084;52.482;9.108;2022-07-23T10:02:41;2.53;;;0.73;;
21843;SDS011;11084;52.482;9.108;2022-07-23T10:05:26;2.77;;;0.87;;
21843;SDS011;11084;52.482;9.108;2022-07-23T10:07:57;3.50;;;0.70;;
21843;SDS011;11084;52.482;9.108;2022-07-23T10:10:39;1.33;;;0.70;;
21843;SDS011;11084;52.482;9.108;2022-07-23T10:13:24;1.73;;;1.17;;
21843;SDS011;11084;52.482;9.108;2022-07-23T10:16:10;3.77;;;0.70;;
21843;SDS011;11084;52.482;9.108;2022-07-23T10:18:36;1.90;;;0.70;;
21843;SDS011;11084;52.482;9.108;2022-07-23T10:21:05;1.37;;;0.77;;
21843;SDS011;11084;52.482;9.108;2022-07-23T10:23:35;2.07;;;0.87;;
21843;SDS011;11084;52.482;9.108;2022-07-23T10:29:58;0.63;;;0.47;;
21843;SDS011;11084;52.482;9.108;2022-07-23T10:35:33;1.90;;;0.80;;
21843;SDS011;11084;52.482;9.108;2022-07-23T10:38:19;4.87;;;0.90;;
21843;SDS011;11084;52.482;9.108;2022-07-23T10:41:04;2.07;;;0.70;;
21843;SDS011;11084;52.482;9.108;2022-07-23T10:43:31;1.50;;;0.67;;
21843;SDS011;11084;52.482;9.108;2022-07-23T10:49:24;1.80;;;0.73;;
21843;SDS011;11084;52.482;9.108;2022-07-23T10:52:18;3.07;;;0.77;;
21843;SDS011;11084;52.482;9.108;2022-07-23T10:57:48;1.73;;;0.80;;
21843;SDS011;11084;52.482;9.108;2022-07-23T11:00:16;0.97;;;0.70;;
21843;SDS011;11084;52.482;9.108;2022-07-23T11:02:48;2.07;;;0.73;;
21843;SDS011;11084;52.482;9.108;2022-07-23T11:05:18;2.80;;;0.50;;
21843;SDS011;11084;52.482;9.108;2022-07-23T11:08:26;5.43;;;0.90;;
21843;SDS011;11084;52.482;9.108;2022-07-23T11:13:41;3.53;;;0.73;;
21843;SDS011;11084;52.482;9.108;2022-07-23T11:16:15;0.30;;;0.30;;
21843;SDS011;11084;52.482;9.108;2022-07-23T11:18:53;6.20;;;1.47;;
21843;SDS011;11084;52.482;9.108;2022-07-23T11:32:03;0.70;;;0.53;;
21843;SDS011;11084;52.482;9.108;2022-07-23T11:34:48;0.67;;;0.50;;
21843;SDS011;11084;52.482;9.108;2022-07-23T11:40:06;0.93;;;0.47;;
21843;SDS011;11084;52.482;9.108;2022-07-23T11:45:37;1.27;;;0.50;;
21843;SDS011;11084;52.482;9.108;2022-07-23T11:48:14;8.10;;;0.73;;
21843;SDS011;11084;52.482;9.108;2022-07-23T11:50:54;3.88;;;0.70;;
21843;SDS011;11084;52.482;9.108;2022-07-23T11:53:26;1.10;;;0.47;;
21843;SDS011;11084;52.482;9.108;2022-07-23T11:56:11;2.40;;;0.30;;
21843;SDS011;11084;52.482;9.108;2022-07-23T11:58:39;4.03;;;0.73;;
21843;SDS011;11084;52.482;9.108;2022-07-23T12:01:19;1.38;;;0.30;;
21843;SDS011;11084;52.482;9.108;2022-07-23T12:03:52;1.33;;;0.50;;
21843;SDS011;11084;52.482;9.108;2022-07-23T12:06:19;2.05;;;0.70;;
21843;SDS011;11084;52.482;9.108;2022-07-23T12:08:45;2.88;;;0.43;;
21843;SDS011;11084;52.482;9.108;2022-07-23T12:11:13;1.33;;;0.32;;
21843;SDS011;11084;52.482;9.108;2022-07-23T12:13:39;1.60;;;0.52;;
21843;SDS011;11084;52.482;9.108;2022-07-23T12:16:05;0.55;;;0.47;;
21843;SDS011;11084;52.482;9.108;2022-07-23T12:18:33;0.35;;;0.35;;
21843;SDS011;11084;52.482;9.108;2022-07-23T12:21:02;1.00;;;0.50;;
21843;SDS011;11084;52.482;9.108;2022-07-23T12:23:31;2.85;;;0.80;;
21843;SDS011;11084;52.482;9.108;2022-07-23T12:26:00;0.52;;;0.45;;
21843;SDS011;11084;52.482;9.108;2022-07-23T12:28:29;5.03;;;0.50;;
21843;SDS011;11084;52.482;9.108;2022-07-23T12:30:58;0.70;;;0.40;;
21843;SDS011;11084;52.482;9.108;2022-07-23T12:33:32;3.83;;;0.98;;
21843;SDS011;11084;52.482;9.108;2022-07-23T12:36:05;6.93;;;0.60;;
21843;SDS011;11084;52.482;9.108;2022-07-23T12:38:43;8.75;;;0.50;;
21843;SDS011;11084;52.482;9.108;2022-07-23T12:41:16;1.08;;;0.60;;
21843;SDS011;11084;52.482;9.108;2022-07-23T12:43:43;1.17;;;0.60;;
21843;SDS011;11084;52.482;9.108;2022-07-23T12:46:12;2.63;;;0.60;;
21843;SDS011;11084;52.482;9.108;2022-07-23T12:51:16;3.22;;;0.50;;
21843;SDS011;11084;52.482;9.108;2022-07-23T12:53:51;1.75;;;0.60;;
21843;SDS011;11084;52.482;9.108;2022-07-23T12:56:30;1.88;;;0.50;;
21843;SDS011;11084;52.482;9.108;2022-07-23T12:59:04;1.63;;;0.50;;
21843;SDS011;11084;52.482;9.108;2022-07-23T13:01:38;0.45;;;0.40;;
21843;SDS011;11084;52.482;9.108;2022-07-23T13:04:18;1.65;;;0.47;;
21843;SDS011;11084;52.482;9.108;2022-07-23T13:06:47;0.55;;;0.50;;
21843;SDS011;11084;52.482;9.108;2022-07-23T13:09:20;1.40;;;0.40;;
21843;SDS011;11084;52.482;9.108;2022-07-23T13:11:54;1.35;;;0.60;;
21843;SDS011;11084;52.482;9.108;2022-07-23T13:14:22;2.10;;;0.38;;
21843;SDS011;11084;52.482;9.108;2022-07-23T13:16:50;1.00;;;0.57;;
21843;SDS011;11084;52.482;9.108;2022-07-23T13:19:18;2.10;;;0.68;;
21843;SDS011;11084;52.482;9.108;2022-07-23T13:21:45;0.88;;;0.30;;
21843;SDS011;11084;52.482;9.108;2022-07-23T13:24:12;0.80;;;0.50;;
21843;SDS011;11084;52.482;9.108;2022-07-23T13:26:38;3.55;;;0.40;;
21843;SDS011;11084;52.482;9.108;2022-07-23T13:29:05;1.65;;;0.50;;
21843;SDS011;11084;52.482;9.108;2022-07-23T13:31:32;0.80;;;0.40;;
21843;SDS011;11084;52.482;9.108;2022-07-23T13:33:58;2.03;;;0.57;;
21843;SDS011;11084;52.482;9.108;2022-07-23T13:36:24;1.17;;;0.55;;
21843;SDS011;11084;52.482;9.108;2022-07-23T13:38:50;3.95;;;0.70;;
21843;SDS011;11084;52.482;9.108;2022-07-23T13:41:19;1.80;;;0.60;;
21843;SDS011;11084;52.482;9.108;2022-07-23T13:43:45;4.40;;;0.40;;
21843;SDS011;11084;52.482;9.108;2022-07-23T13:46:11;1.27;;;0.47;;
21843;SDS011;11084;52.482;9.108;2022-07-23T13:48:37;0.93;;;0.45;;
21843;SDS011;11084;52.482;9.108;2022-07-23T13:51:03;1.58;;;0.30;;
21843;SDS011;11084;52.482;9.108;2022-07-23T13:53:29;1.42;;;0.40;;
21843;SDS011;11084;52.482;9.108;2022-07-23T13:55:55;2.58;;;0.63;;
21843;SDS011;11084;52.482;9.108;2022-07-23T13:58:22;2.75;;;0.50;;
21843;SDS011;11084;52.482;9.108;2022-07-23T14:00:49;0.75;;;0.43;;
21843;SDS011;11084;52.482;9.108;2022-07-23T14:03:19;1.50;;;0.30;;
21843;SDS011;11084;52.482;9.108;2022-07-23T14:05:51;0.57;;;0.45;;
21843;SDS011;11084;52.482;9.108;2022-07-23T14:08:18;1.08;;;0.30;;
21843;SDS011;11084;52.482;9.108;2022-07-23T14:10:45;1.05;;;0.50;;
21843;SDS011;11084;52.482;9.108;2022-07-23T14:13:11;1.17;;;0.40;;
21843;SDS011;11084;52.482;9.108;2022-07-23T14:15:37;5.90;;;0.60;;
21843;SDS011;11084;52.482;9.108;2022-07-23T14:18:05;3.00;;;0.60;;
21843;SDS011;11084;52.482;9.108;2022-07-23T14:20:33;0.50;;;0.50;;
21843;SDS011;11084;52.482;9.108;2022-07-23T14:23:00;0.30;;;0.28;;
21843;SDS011;11084;52.482;9.108;2022-07-23T14:25:26;3.30;;;0.45;;
21843;SDS011;11084;52.482;9.108;2022-07-23T14:27:53;0.55;;;0.50;;
21843;SDS011;11084;52.482;9.108;2022-07-23T14:30:19;3.60;;;0.47;;
21843;SDS011;11084;52.482;9.108;2022-07-23T14:32:48;1.95;;;0.60;;
21843;SDS011;11084;52.482;9.108;2022-07-23T14:35:14;2.25;;;0.40;;
21843;SDS011;11084;52.482;9.108;2022-07-23T14:37:40;0.75;;;0.35;;
21843;SDS011;11084;52.482;9.108;2022-07-23T14:40:06;1.85;;;0.30;;
21843;SDS011;11084;52.482;9.108;2022-07-23T14:42:33;1.02;;;0.40;;
21843;SDS011;11084;52.482;9.108;2022-07-23T14:44:59;0.95;;;0.45;;
21843;SDS011;11084;52.482;9.108;2022-07-23T14:47:24;0.80;;;0.50;;
21843;SDS011;11084;52.482;9.108;2022-07-23T14:49:51;0.38;;;0.38;;
21843;SDS011;11084;52.482;9.108;2022-07-23T14:52:16;1.25;;;0.55;;
21843;SDS011;11084;52.482;9.108;2022-07-23T14:54:43;12.95;;;0.70;;
21843;SDS011;11084;52.482;9.108;2022-07-23T14:57:09;0.40;;;0.30;;
21843;SDS011;11084;52.482;9.108;2022-07-23T14:59:35;0.95;;;0.40;;
21843;SDS011;11084;52.482;9.108;2022-07-23T15:02:02;1.25;;;0.38;;
21843;SDS011;11084;52.482;9.108;2022-07-23T15:04:28;1.45;;;0.40;;
21843;SDS011;11084;52.482;9.108;2022-07-23T15:06:54;0.38;;;0.30;;
21843;SDS011;11084;52.482;9.108;2022-07-23T15:09:20;4.20;;;0.63;;
21843;SDS011;11084;52.482;9.108;2022-07-23T15:11:46;3.35;;;0.40;;
21843;SDS011;11084;52.482;9.108;2022-07-23T15:14:12;1.77;;;0.68;;
21843;SDS011;11084;52.482;9.108;2022-07-23T15:16:38;0.43;;;0.30;;
21843;SDS011;11084;52.482;9.108;2022-07-23T15:19:04;6.93;;;0.77;;
21843;SDS011;11084;52.482;9.108;2022-07-23T15:21:30;3.30;;;0.63;;
21843;SDS011;11084;52.482;9.108;2022-07-23T15:23:57;8.83;;;0.53;;
21843;SDS011;11084;52.482;9.108;2022-07-23T15:26:24;0.50;;;0.50;;
21843;SDS011;11084;52.482;9.108;2022-07-23T15:28:55;5.47;;;0.60;;
21843;SDS011;11084;52.482;9.108;2022-07-23T15:31:25;0.88;;;0.60;;
21843;SDS011;11084;52.482;9.108;2022-07-23T15:33:51;5.17;;;0.60;;
21843;SDS011;11084;52.482;9.108;2022-07-23T15:36:18;1.30;;;0.37;;
21843;SDS011;11084;52.482;9.108;2022-07-23T15:38:46;1.60;;;0.57;;
21843;SDS011;11084;52.482;9.108;2022-07-23T15:41:13;6.20;;;0.50;;
21843;SDS011;11084;52.482;9.108;2022-07-23T15:43:39;0.50;;;0.40;;
21843;SDS011;11084;52.482;9.108;2022-07-23T15:46:05;0.40;;;0.40;;
21843;SDS011;11084;52.482;9.108;2022-07-23T15:48:33;1.13;;;0.40;;
21843;SDS011;11084;52.482;9.108;2022-07-23T15:51:03;1.33;;;0.47;;